Terminal Aerodrome Forecast
Issued by NWS

Home | Current Version | Previous Version | Text Only | Print | Product List | Glossary On
Versions: 1 2 3 4 5 6 7 8 9 10 11 12 13 14 15 16
000
FTUS44 KLZK 201700
TAFLLQ
TAF
KLLQ 201720Z 2018/2118 23007KT P6SM FEW060
     FM210100 18003KT P6SM SKC
     FM211600 23007KT P6SM FEW060=

USA.gov is the U.S. government's official web portal to all federal, state and local government web resources and services.